sensor_id;sensor_type;location;lat;lon;timestamp;P1;P2;P0
65012;PMS5003;51715;39.432;-77.518;2022-11-21T00:01:12;3;3;
65012;PMS5003;51715;39.432;-77.518;2022-11-21T00:03:43;5;3;
65012;PMS5003;51715;39.432;-77.518;2022-11-21T00:06:12;7;4;
65012;PMS5003;51715;39.432;-77.518;2022-11-21T00:08:41;3;3;
65012;PMS5003;51715;39.432;-77.518;2022-11-21T00:11:09;2;2;
65012;PMS5003;51715;39.432;-77.518;2022-11-21T00:13:38;3;3;
65012;PMS5003;51715;39.432;-77.518;2022-11-21T00:16:08;2;2;
65012;PMS5003;51715;39.432;-77.518;2022-11-21T00:18:37;1;1;
65012;PMS5003;51715;39.432;-77.518;2022-11-21T00:21:07;3;3;
65012;PMS5003;51715;39.432;-77.518;2022-11-21T00:23:38;6;4;
65012;PMS5003;51715;39.432;-77.518;2022-11-21T00:26:07;3;3;
65012;PMS5003;51715;39.432;-77.518;2022-11-21T00:28:37;3;3;
65012;PMS5003;51715;39.432;-77.518;2022-11-21T00:31:06;3;3;
65012;PMS5003;51715;39.432;-77.518;2022-11-21T00:33:35;1;1;
65012;PMS5003;51715;39.432;-77.518;2022-11-21T00:36:05;4;4;
65012;PMS5003;51715;39.432;-77.518;2022-11-21T00:38:34;5;3;
65012;PMS5003;51715;39.432;-77.518;2022-11-21T00:41:03;5;5;
65012;PMS5003;51715;39.432;-77.518;2022-11-21T00:43:32;5;2;
65012;PMS5003;51715;39.432;-77.518;2022-11-21T00:46:00;3;2;
65012;PMS5003;51715;39.432;-77.518;2022-11-21T00:48:29;3;3;
65012;PMS5003;51715;39.432;-77.518;2022-11-21T00:50:59;6;2;
65012;PMS5003;51715;39.432;-77.518;2022-11-21T00:53:28;5;4;
65012;PMS5003;51715;39.432;-77.518;2022-11-21T00:55:56;3;3;
65012;PMS5003;51715;39.432;-77.518;2022-11-21T00:58:25;2;2;
65012;PMS5003;51715;39.432;-77.518;2022-11-21T01:01:00;3;3;
65012;PMS5003;51715;39.432;-77.518;2022-11-21T01:03:31;3;3;
65012;PMS5003;51715;39.432;-77.518;2022-11-21T01:06:00;3;1;
65012;PMS5003;51715;39.432;-77.518;2022-11-21T01:08:31;2;2;
65012;PMS5003;51715;39.432;-77.518;2022-11-21T01:11:01;5;2;
65012;PMS5003;51715;39.432;-77.518;2022-11-21T01:13:30;2;2;
65012;PMS5003;51715;39.432;-77.518;2022-11-21T01:16:02;2;2;
65012;PMS5003;51715;39.432;-77.518;2022-11-21T01:18:31;2;2;
65012;PMS5003;51715;39.432;-77.518;2022-11-21T01:21:01;2;2;
65012;PMS5003;51715;39.432;-77.518;2022-11-21T01:23:29;1;1;
65012;PMS5003;51715;39.432;-77.518;2022-11-21T01:26:00;0;0;
65012;PMS5003;51715;39.432;-77.518;2022-11-21T01:28:29;2;2;
65012;PMS5003;51715;39.432;-77.518;2022-11-21T01:31:02;3;2;
65012;PMS5003;51715;39.432;-77.518;2022-11-21T01:33:31;1;1;
65012;PMS5003;51715;39.432;-77.518;2022-11-21T01:36:09;3;2;
65012;PMS5003;51715;39.432;-77.518;2022-11-21T01:38:40;4;2;
65012;PMS5003;51715;39.432;-77.518;2022-11-21T01:41:09;2;2;
65012;PMS5003;51715;39.432;-77.518;2022-11-21T01:43:39;4;2;
65012;PMS5003;51715;39.432;-77.518;2022-11-21T01:46:10;2;2;
65012;PMS5003;51715;39.432;-77.518;2022-11-21T01:48:41;2;2;
65012;PMS5003;51715;39.432;-77.518;2022-11-21T01:51:16;3;2;
65012;PMS5003;51715;39.432;-77.518;2022-11-21T01:53:51;3;2;
65012;PMS5003;51715;39.432;-77.518;2022-11-21T01:56:24;2;2;
65012;PMS5003;51715;39.432;-77.518;2022-11-21T01:58:53;2;2;
65012;PMS5003;51715;39.432;-77.518;2022-11-21T02:01:26;2;2;
65012;PMS5003;51715;39.432;-77.518;2022-11-21T02:03:56;1;1;
65012;PMS5003;51715;39.432;-77.518;2022-11-21T02:06:29;3;3;
65012;PMS5003;51715;39.432;-77.518;2022-11-21T02:08:59;2;2;
65012;PMS5003;51715;39.432;-77.518;2022-11-21T02:11:31;2;1;
65012;PMS5003;51715;39.432;-77.518;2022-11-21T02:14:04;2;2;
65012;PMS5003;51715;39.432;-77.518;2022-11-21T02:16:33;1;1;
65012;PMS5003;51715;39.432;-77.518;2022-11-21T02:19:02;1;0;
65012;PMS5003;51715;39.432;-77.518;2022-11-21T02:21:36;3;2;
65012;PMS5003;51715;39.432;-77.518;2022-11-21T02:24:13;5;3;
65012;PMS5003;51715;39.432;-77.518;2022-11-21T02:26:48;15;12;
65012;PMS5003;51715;39.432;-77.518;2022-11-21T02:29:16;8;7;
65012;PMS5003;51715;39.432;-77.518;2022-11-21T02:31:45;18;16;
65012;PMS5003;51715;39.432;-77.518;2022-11-21T02:34:13;18;13;
65012;PMS5003;51715;39.432;-77.518;2022-11-21T02:36:42;26;18;
65012;PMS5003;51715;39.432;-77.518;2022-11-21T02:39:14;10;6;
65012;PMS5003;51715;39.432;-77.518;2022-11-21T02:41:48;14;8;
65012;PMS5003;51715;39.432;-77.518;2022-11-21T02:44:24;13;11;
65012;PMS5003;51715;39.432;-77.518;2022-11-21T02:46:55;15;15;
65012;PMS5003;51715;39.432;-77.518;2022-11-21T02:49:28;18;16;
65012;PMS5003;51715;39.432;-77.518;2022-11-21T02:52:04;19;16;
65012;PMS5003;51715;39.432;-77.518;2022-11-21T02:54:33;13;13;
65012;PMS5003;51715;39.432;-77.518;2022-11-21T02:57:01;13;10;
65012;PMS5003;51715;39.432;-77.518;2022-11-21T02:59:30;12;12;
65012;PMS5003;51715;39.432;-77.518;2022-11-21T03:01:58;14;11;
65012;PMS5003;51715;39.432;-77.518;2022-11-21T03:04:27;9;8;
65012;PMS5003;51715;39.432;-77.518;2022-11-21T03:07:01;7;6;
65012;PMS5003;51715;39.432;-77.518;2022-11-21T03:09:30;11;8;
65012;PMS5003;51715;39.432;-77.518;2022-11-21T03:11:58;10;7;
65012;PMS5003;51715;39.432;-77.518;2022-11-21T03:14:31;6;6;
65012;PMS5003;51715;39.432;-77.518;2022-11-21T03:16:59;5;4;
65012;PMS5003;51715;39.432;-77.518;2022-11-21T03:19:27;5;5;
65012;PMS5003;51715;39.432;-77.518;2022-11-21T03:21:55;5;5;
65012;PMS5003;51715;39.432;-77.518;2022-11-21T03:24:24;11;5;
65012;PMS5003;51715;39.432;-77.518;2022-11-21T03:26:52;5;5;
65012;PMS5003;51715;39.432;-77.518;2022-11-21T03:29:20;4;4;
65012;PMS5003;51715;39.432;-77.518;2022-11-21T03:31:48;5;5;
65012;PMS5003;51715;39.432;-77.518;2022-11-21T03:34:17;6;4;
65012;PMS5003;51715;39.432;-77.518;2022-11-21T03:36:44;4;4;
65012;PMS5003;51715;39.432;-77.518;2022-11-21T03:39:13;9;6;
65012;PMS5003;51715;39.432;-77.518;2022-11-21T03:41:42;6;6;
65012;PMS5003;51715;39.432;-77.518;2022-11-21T03:44:11;8;5;
65012;PMS5003;51715;39.432;-77.518;2022-11-21T03:46:40;7;6;
65012;PMS5003;51715;39.432;-77.518;2022-11-21T03:49:10;7;6;
65012;PMS5003;51715;39.432;-77.518;2022-11-21T03:51:39;11;10;
65012;PMS5003;51715;39.432;-77.518;2022-11-21T03:54:07;7;7;
65012;PMS5003;51715;39.432;-77.518;2022-11-21T03:56:36;11;9;
65012;PMS5003;51715;39.432;-77.518;2022-11-21T03:59:04;14;10;
65012;PMS5003;51715;39.432;-77.518;2022-11-21T04:01:33;18;12;
65012;PMS5003;51715;39.432;-77.518;2022-11-21T04:04:03;14;13;
65012;PMS5003;51715;39.432;-77.518;2022-11-21T04:06:32;15;12;
65012;PMS5003;51715;39.432;-77.518;2022-11-21T04:09:00;17;14;
65012;PMS5003;51715;39.432;-77.518;2022-11-21T04:11:30;14;12;
65012;PMS5003;51715;39.432;-77.518;2022-11-21T04:13:58;11;10;
65012;PMS5003;51715;39.432;-77.518;2022-11-21T04:16:26;11;10;
65012;PMS5003;51715;39.432;-77.518;2022-11-21T04:18:55;8;8;
65012;PMS5003;51715;39.432;-77.518;2022-11-21T04:21:23;12;11;
65012;PMS5003;51715;39.432;-77.518;2022-11-21T04:23:52;11;9;
65012;PMS5003;51715;39.432;-77.518;2022-11-21T04:26:21;9;9;
65012;PMS5003;51715;39.432;-77.518;2022-11-21T04:28:49;7;7;
65012;PMS5003;51715;39.432;-77.518;2022-11-21T04:31:22;9;9;
65012;PMS5003;51715;39.432;-77.518;2022-11-21T04:33:50;7;7;
65012;PMS5003;51715;39.432;-77.518;2022-11-21T04:36:19;14;9;
65012;PMS5003;51715;39.432;-77.518;2022-11-21T04:38:48;8;7;
65012;PMS5003;51715;39.432;-77.518;2022-11-21T04:41:17;12;9;
65012;PMS5003;51715;39.432;-77.518;2022-11-21T04:43:44;7;7;
65012;PMS5003;51715;39.432;-77.518;2022-11-21T04:46:12;5;5;
65012;PMS5003;51715;39.432;-77.518;2022-11-21T04:48:41;10;8;
65012;PMS5003;51715;39.432;-77.518;2022-11-21T04:51:09;7;6;
65012;PMS5003;51715;39.432;-77.518;2022-11-21T04:53:37;8;7;
65012;PMS5003;51715;39.432;-77.518;2022-11-21T04:56:05;7;6;
65012;PMS5003;51715;39.432;-77.518;2022-11-21T04:58:34;6;5;
65012;PMS5003;51715;39.432;-77.518;2022-11-21T05:03:53;8;7;
65012;PMS5003;51715;39.432;-77.518;2022-11-21T05:06:22;6;6;
65012;PMS5003;51715;39.432;-77.518;2022-11-21T05:08:51;8;6;
65012;PMS5003;51715;39.432;-77.518;2022-11-21T05:11:19;7;6;
65012;PMS5003;51715;39.432;-77.518;2022-11-21T05:13:48;10;9;
65012;PMS5003;51715;39.432;-77.518;2022-11-21T05:16:19;9;7;
65012;PMS5003;51715;39.432;-77.518;2022-11-21T05:18:48;9;6;
65012;PMS5003;51715;39.432;-77.518;2022-11-21T05:21:16;8;8;
65012;PMS5003;51715;39.432;-77.518;2022-11-21T05:23:44;11;11;
65012;PMS5003;51715;39.432;-77.518;2022-11-21T05:26:12;14;10;
65012;PMS5003;51715;39.432;-77.518;2022-11-21T05:28:41;17;13;
65012;PMS5003;51715;39.432;-77.518;2022-11-21T05:31:09;14;11;
65012;PMS5003;51715;39.432;-77.518;2022-11-21T05:33:36;14;13;
65012;PMS5003;51715;39.432;-77.518;2022-11-21T05:36:05;13;13;
65012;PMS5003;51715;39.432;-77.518;2022-11-21T05:38:33;7;7;
65012;PMS5003;51715;39.432;-77.518;2022-11-21T05:41:00;11;8;
65012;PMS5003;51715;39.432;-77.518;2022-11-21T05:43:29;12;8;
65012;PMS5003;51715;39.432;-77.518;2022-11-21T05:45:58;9;9;
65012;PMS5003;51715;39.432;-77.518;2022-11-21T05:48:26;9;9;
65012;PMS5003;51715;39.432;-77.518;2022-11-21T05:50:54;8;8;
65012;PMS5003;51715;39.432;-77.518;2022-11-21T05:53:22;11;9;
65012;PMS5003;51715;39.432;-77.518;2022-11-21T05:55:51;11;7;
65012;PMS5003;51715;39.432;-77.518;2022-11-21T05:58:19;8;7;
65012;PMS5003;51715;39.432;-77.518;2022-11-21T06:00:48;8;8;
65012;PMS5003;51715;39.432;-77.518;2022-11-21T06:03:21;7;6;
65012;PMS5003;51715;39.432;-77.518;2022-11-21T06:05:49;11;9;
65012;PMS5003;51715;39.432;-77.518;2022-11-21T06:08:18;7;6;
65012;PMS5003;51715;39.432;-77.518;2022-11-21T06:10:46;8;7;
65012;PMS5003;51715;39.432;-77.518;2022-11-21T06:13:14;7;7;
65012;PMS5003;51715;39.432;-77.518;2022-11-21T06:15:43;9;7;
65012;PMS5003;51715;39.432;-77.518;2022-11-21T06:18:11;7;5;
65012;PMS5003;51715;39.432;-77.518;2022-11-21T06:20:39;11;8;
65012;PMS5003;51715;39.432;-77.518;2022-11-21T06:23:06;10;7;
65012;PMS5003;51715;39.432;-77.518;2022-11-21T06:25:34;10;10;
65012;PMS5003;51715;39.432;-77.518;2022-11-21T06:28:02;4;4;
65012;PMS5003;51715;39.432;-77.518;2022-11-21T06:30:30;7;5;
65012;PMS5003;51715;39.432;-77.518;2022-11-21T06:32:58;9;8;
65012;PMS5003;51715;39.432;-77.518;2022-11-21T06:35:28;8;6;
65012;PMS5003;51715;39.432;-77.518;2022-11-21T06:37:56;7;7;
65012;PMS5003;51715;39.432;-77.518;2022-11-21T06:40:25;3;3;
65012;PMS5003;51715;39.432;-77.518;2022-11-21T06:42:54;6;6;
65012;PMS5003;51715;39.432;-77.518;2022-11-21T06:45:22;10;8;
65012;PMS5003;51715;39.432;-77.518;2022-11-21T06:47:50;11;8;
65012;PMS5003;51715;39.432;-77.518;2022-11-21T06:50:19;7;7;
65012;PMS5003;51715;39.432;-77.518;2022-11-21T06:52:47;12;9;
65012;PMS5003;51715;39.432;-77.518;2022-11-21T06:55:15;6;4;
65012;PMS5003;51715;39.432;-77.518;2022-11-21T06:57:42;7;5;
65012;PMS5003;51715;39.432;-77.518;2022-11-21T07:00:11;6;6;
65012;PMS5003;51715;39.432;-77.518;2022-11-21T07:02:41;4;3;
65012;PMS5003;51715;39.432;-77.518;2022-11-21T07:05:09;9;6;
65012;PMS5003;51715;39.432;-77.518;2022-11-21T07:07:37;8;8;
65012;PMS5003;51715;39.432;-77.518;2022-11-21T07:10:07;7;6;
65012;PMS5003;51715;39.432;-77.518;2022-11-21T07:12:35;4;4;
65012;PMS5003;51715;39.432;-77.518;2022-11-21T07:15:03;6;4;
65012;PMS5003;51715;39.432;-77.518;2022-11-21T07:17:32;5;5;
65012;PMS5003;51715;39.432;-77.518;2022-11-21T07:20:01;5;3;
65012;PMS5003;51715;39.432;-77.518;2022-11-21T07:22:29;5;5;
65012;PMS5003;51715;39.432;-77.518;2022-11-21T07:24:57;5;5;
65012;PMS5003;51715;39.432;-77.518;2022-11-21T07:27:26;4;4;
65012;PMS5003;51715;39.432;-77.518;2022-11-21T07:29:54;6;6;
65012;PMS5003;51715;39.432;-77.518;2022-11-21T07:32:23;10;7;
65012;PMS5003;51715;39.432;-77.518;2022-11-21T07:34:51;7;5;
65012;PMS5003;51715;39.432;-77.518;2022-11-21T07:37:19;5;3;
65012;PMS5003;51715;39.432;-77.518;2022-11-21T07:39:47;8;5;
65012;PMS5003;51715;39.432;-77.518;2022-11-21T07:42:16;4;4;
65012;PMS5003;51715;39.432;-77.518;2022-11-21T07:44:44;6;5;
65012;PMS5003;51715;39.432;-77.518;2022-11-21T07:47:12;11;8;
65012;PMS5003;51715;39.432;-77.518;2022-11-21T07:49:41;5;5;
65012;PMS5003;51715;39.432;-77.518;2022-11-21T07:52:09;6;5;
65012;PMS5003;51715;39.432;-77.518;2022-11-21T07:54:37;5;5;
65012;PMS5003;51715;39.432;-77.518;2022-11-21T07:57:05;7;5;
65012;PMS5003;51715;39.432;-77.518;2022-11-21T07:59:34;4;4;
65012;PMS5003;51715;39.432;-77.518;2022-11-21T08:02:02;4;4;
65012;PMS5003;51715;39.432;-77.518;2022-11-21T08:04:30;6;5;
65012;PMS5003;51715;39.432;-77.518;2022-11-21T08:06:59;3;3;
65012;PMS5003;51715;39.432;-77.518;2022-11-21T08:09:27;7;7;
65012;PMS5003;51715;39.432;-77.518;2022-11-21T08:11:56;4;4;
65012;PMS5003;51715;39.432;-77.518;2022-11-21T08:14:24;3;3;
65012;PMS5003;51715;39.432;-77.518;2022-11-21T08:16:53;5;5;
65012;PMS5003;51715;39.432;-77.518;2022-11-21T08:19:21;10;6;
65012;PMS5003;51715;39.432;-77.518;2022-11-21T08:21:49;9;7;
65012;PMS5003;51715;39.432;-77.518;2022-11-21T08:24:18;6;5;
65012;PMS5003;51715;39.432;-77.518;2022-11-21T08:26:47;6;6;
65012;PMS5003;51715;39.432;-77.518;2022-11-21T08:29:16;3;3;
65012;PMS5003;51715;39.432;-77.518;2022-11-21T08:31:44;6;6;
65012;PMS5003;51715;39.432;-77.518;2022-11-21T08:34:13;5;4;
65012;PMS5003;51715;39.432;-77.518;2022-11-21T08:36:42;7;6;
65012;PMS5003;51715;39.432;-77.518;2022-11-21T08:39:10;9;7;
65012;PMS5003;51715;39.432;-77.518;2022-11-21T08:41:38;11;8;
65012;PMS5003;51715;39.432;-77.518;2022-11-21T08:44:06;11;8;
65012;PMS5003;51715;39.432;-77.518;2022-11-21T08:46:34;7;7;
65012;PMS5003;51715;39.432;-77.518;2022-11-21T08:49:04;9;7;
65012;PMS5003;51715;39.432;-77.518;2022-11-21T08:51:32;11;7;
65012;PMS5003;51715;39.432;-77.518;2022-11-21T08:54:00;8;6;
65012;PMS5003;51715;39.432;-77.518;2022-11-21T08:56:27;9;7;
65012;PMS5003;51715;39.432;-77.518;2022-11-21T08:58:55;11;7;
65012;PMS5003;51715;39.432;-77.518;2022-11-21T09:01:23;9;6;
65012;PMS5003;51715;39.432;-77.518;2022-11-21T09:03:51;5;5;
65012;PMS5003;51715;39.432;-77.518;2022-11-21T09:06:19;8;8;
65012;PMS5003;51715;39.432;-77.518;2022-11-21T09:08:48;9;7;
65012;PMS5003;51715;39.432;-77.518;2022-11-21T09:11:16;7;7;
65012;PMS5003;51715;39.432;-77.518;2022-11-21T09:13:45;11;7;
65012;PMS5003;51715;39.432;-77.518;2022-11-21T09:16:14;8;6;
65012;PMS5003;51715;39.432;-77.518;2022-11-21T09:18:42;6;5;
65012;PMS5003;51715;39.432;-77.518;2022-11-21T09:21:13;8;7;
65012;PMS5003;51715;39.432;-77.518;2022-11-21T09:23:41;9;7;
65012;PMS5003;51715;39.432;-77.518;2022-11-21T09:26:09;6;5;
65012;PMS5003;51715;39.432;-77.518;2022-11-21T09:28:39;9;5;
65012;PMS5003;51715;39.432;-77.518;2022-11-21T09:31:07;9;6;
65012;PMS5003;51715;39.432;-77.518;2022-11-21T09:33:36;9;9;
65012;PMS5003;51715;39.432;-77.518;2022-11-21T09:36:04;5;5;
65012;PMS5003;51715;39.432;-77.518;2022-11-21T09:38:32;10;7;
65012;PMS5003;51715;39.432;-77.518;2022-11-21T09:41:09;14;11;
65012;PMS5003;51715;39.432;-77.518;2022-11-21T09:43:50;22;13;
65012;PMS5003;51715;39.432;-77.518;2022-11-21T09:46:30;16;11;
65012;PMS5003;51715;39.432;-77.518;2022-11-21T09:49:05;15;15;
65012;PMS5003;51715;39.432;-77.518;2022-11-21T09:51:38;14;11;
65012;PMS5003;51715;39.432;-77.518;2022-11-21T09:54:10;13;11;
65012;PMS5003;51715;39.432;-77.518;2022-11-21T09:56:44;21;17;
65012;PMS5003;51715;39.432;-77.518;2022-11-21T09:59:31;19;16;
65012;PMS5003;51715;39.432;-77.518;2022-11-21T10:02:01;20;19;
65012;PMS5003;51715;39.432;-77.518;2022-11-21T10:04:38;15;14;
65012;PMS5003;51715;39.432;-77.518;2022-11-21T10:07:10;19;17;
65012;PMS5003;51715;39.432;-77.518;2022-11-21T10:09:58;18;14;
65012;PMS5003;51715;39.432;-77.518;2022-11-21T10:12:41;14;13;
65012;PMS5003;51715;39.432;-77.518;2022-11-21T10:15:30;9;8;
65012;PMS5003;51715;39.432;-77.518;2022-11-21T10:18:15;10;8;
65012;PMS5003;51715;39.432;-77.518;2022-11-21T10:20:57;9;9;
65012;PMS5003;51715;39.432;-77.518;2022-11-21T10:23:37;13;10;
65012;PMS5003;51715;39.432;-77.518;2022-11-21T10:27:22;11;8;
65012;PMS5003;51715;39.432;-77.518;2022-11-21T10:29:58;9;9;
65012;PMS5003;51715;39.432;-77.518;2022-11-21T10:32:34;10;6;
65012;PMS5003;51715;39.432;-77.518;2022-11-21T10:35:12;12;10;
65012;PMS5003;51715;39.432;-77.518;2022-11-21T10:37:44;12;11;
65012;PMS5003;51715;39.432;-77.518;2022-11-21T10:40:19;10;8;
65012;PMS5003;51715;39.432;-77.518;2022-11-21T10:42:59;7;7;
65012;PMS5003;51715;39.432;-77.518;2022-11-21T10:45:31;8;7;
65012;PMS5003;51715;39.432;-77.518;2022-11-21T10:47:59;9;9;
65012;PMS5003;51715;39.432;-77.518;2022-11-21T10:50:31;8;8;
65012;PMS5003;51715;39.432;-77.518;2022-11-21T10:53:09;5;5;
65012;PMS5003;51715;39.432;-77.518;2022-11-21T10:55:46;6;6;
65012;PMS5003;51715;39.432;-77.518;2022-11-21T10:58:32;8;8;
65012;PMS5003;51715;39.432;-77.518;2022-11-21T11:01:03;9;7;
65012;PMS5003;51715;39.432;-77.518;2022-11-21T11:03:30;12;11;
65012;PMS5003;51715;39.432;-77.518;2022-11-21T11:05:59;10;8;
65012;PMS5003;51715;39.432;-77.518;2022-11-21T11:08:28;11;6;
65012;PMS5003;51715;39.432;-77.518;2022-11-21T11:11:15;7;7;
65012;PMS5003;51715;39.432;-77.518;2022-11-21T11:13:53;8;7;
65012;PMS5003;51715;39.432;-77.518;2022-11-21T11:16:25;8;7;
65012;PMS5003;51715;39.432;-77.518;2022-11-21T11:18:56;11;8;
65012;PMS5003;51715;39.432;-77.518;2022-11-21T11:21:27;11;8;
65012;PMS5003;51715;39.432;-77.518;2022-11-21T11:24:05;11;10;
65012;PMS5003;51715;39.432;-77.518;2022-11-21T11:26:50;12;10;
65012;PMS5003;51715;39.432;-77.518;2022-11-21T11:29:21;9;9;
65012;PMS5003;51715;39.432;-77.518;2022-11-21T11:31:52;8;7;
65012;PMS5003;51715;39.432;-77.518;2022-11-21T11:34:23;12;11;
65012;PMS5003;51715;39.432;-77.518;2022-11-21T11:36:55;14;14;
65012;PMS5003;51715;39.432;-77.518;2022-11-21T11:39:38;8;8;
65012;PMS5003;51715;39.432;-77.518;2022-11-21T11:42:17;18;15;
65012;PMS5003;51715;39.432;-77.518;2022-11-21T11:45:06;13;10;
65012;PMS5003;51715;39.432;-77.518;2022-11-21T11:47:44;11;11;
65012;PMS5003;51715;39.432;-77.518;2022-11-21T11:50:16;17;14;
65012;PMS5003;51715;39.432;-77.518;2022-11-21T11:52:51;8;8;
65012;PMS5003;51715;39.432;-77.518;2022-11-21T11:55:33;14;12;
65012;PMS5003;51715;39.432;-77.518;2022-11-21T11:58:06;8;8;
65012;PMS5003;51715;39.432;-77.518;2022-11-21T12:00:45;7;7;
65012;PMS5003;51715;39.432;-77.518;2022-11-21T12:03:21;7;6;
65012;PMS5003;51715;39.432;-77.518;2022-11-21T12:05:58;9;8;
65012;PMS5003;51715;39.432;-77.518;2022-11-21T12:08:35;10;8;
65012;PMS5003;51715;39.432;-77.518;2022-11-21T12:11:12;9;7;
65012;PMS5003;51715;39.432;-77.518;2022-11-21T12:13:47;14;11;
65012;PMS5003;51715;39.432;-77.518;2022-11-21T12:16:16;10;7;
65012;PMS5003;51715;39.432;-77.518;2022-11-21T12:18:47;10;9;
65012;PMS5003;51715;39.432;-77.518;2022-11-21T12:21:21;9;9;
65012;PMS5003;51715;39.432;-77.518;2022-11-21T12:23:50;10;10;
65012;PMS5003;51715;39.432;-77.518;2022-11-21T12:26:23;8;8;
65012;PMS5003;51715;39.432;-77.518;2022-11-21T12:29:05;11;10;
65012;PMS5003;51715;39.432;-77.518;2022-11-21T12:31:50;11;8;
65012;PMS5003;51715;39.432;-77.518;2022-11-21T12:34:32;10;10;
65012;PMS5003;51715;39.432;-77.518;2022-11-21T12:37:17;9;8;
65012;PMS5003;51715;39.432;-77.518;2022-11-21T12:39:58;8;8;
65012;PMS5003;51715;39.432;-77.518;2022-11-21T12:42:37;10;9;
65012;PMS5003;51715;39.432;-77.518;2022-11-21T12:45:20;12;11;
65012;PMS5003;51715;39.432;-77.518;2022-11-21T12:47:58;10;10;
65012;PMS5003;51715;39.432;-77.518;2022-11-21T12:50:38;9;9;
65012;PMS5003;51715;39.432;-77.518;2022-11-21T12:53:19;10;10;
65012;PMS5003;51715;39.432;-77.518;2022-11-21T12:55:54;13;12;
65012;PMS5003;51715;39.432;-77.518;2022-11-21T12:58:34;15;13;
65012;PMS5003;51715;39.432;-77.518;2022-11-21T13:01:12;13;10;
65012;PMS5003;51715;39.432;-77.518;2022-11-21T13:03:50;42;42;
65012;PMS5003;51715;39.432;-77.518;2022-11-21T13:06:25;35;31;
65012;PMS5003;51715;39.432;-77.518;2022-11-21T13:08:56;25;22;
65012;PMS5003;51715;39.432;-77.518;2022-11-21T13:11:31;17;17;
65012;PMS5003;51715;39.432;-77.518;2022-11-21T13:14:08;16;13;
65012;PMS5003;51715;39.432;-77.518;2022-11-21T13:16:44;11;11;
65012;PMS5003;51715;39.432;-77.518;2022-11-21T13:19:21;10;9;
65012;PMS5003;51715;39.432;-77.518;2022-11-21T13:21:56;10;10;
65012;PMS5003;51715;39.432;-77.518;2022-11-21T13:24:59;7;7;
65012;PMS5003;51715;39.432;-77.518;2022-11-21T13:27:30;8;8;
65012;PMS5003;51715;39.432;-77.518;2022-11-21T13:30:33;11;11;
65012;PMS5003;51715;39.432;-77.518;2022-11-21T13:33:22;11;9;
65012;PMS5003;51715;39.432;-77.518;2022-11-21T13:36:32;9;7;
65012;PMS5003;51715;39.432;-77.518;2022-11-21T13:39:26;6;6;
65012;PMS5003;51715;39.432;-77.518;2022-11-21T13:42:06;8;5;
65012;PMS5003;51715;39.432;-77.518;2022-11-21T13:44:37;13;11;
65012;PMS5003;51715;39.432;-77.518;2022-11-21T13:47:08;7;7;
65012;PMS5003;51715;39.432;-77.518;2022-11-21T13:49:59;9;7;
65012;PMS5003;51715;39.432;-77.518;2022-11-21T13:52:37;9;9;
65012;PMS5003;51715;39.432;-77.518;2022-11-21T13:55:26;9;7;
65012;PMS5003;51715;39.432;-77.518;2022-11-21T13:58:11;6;6;
65012;PMS5003;51715;39.432;-77.518;2022-11-21T14:00:54;9;8;
65012;PMS5003;51715;39.432;-77.518;2022-11-21T14:03:48;8;7;
65012;PMS5003;51715;39.432;-77.518;2022-11-21T14:06:35;6;6;
65012;PMS5003;51715;39.432;-77.518;2022-11-21T14:09:13;12;9;
65012;PMS5003;51715;39.432;-77.518;2022-11-21T14:11:47;9;7;
65012;PMS5003;51715;39.432;-77.518;2022-11-21T14:14:27;8;8;
65012;PMS5003;51715;39.432;-77.518;2022-11-21T14:17:04;7;7;
65012;PMS5003;51715;39.432;-77.518;2022-11-21T14:19:42;7;7;
65012;PMS5003;51715;39.432;-77.518;2022-11-21T14:22:13;6;6;
65012;PMS5003;51715;39.432;-77.518;2022-11-21T14:24:51;10;7;
65012;PMS5003;51715;39.432;-77.518;2022-11-21T14:27:23;10;8;
65012;PMS5003;51715;39.432;-77.518;2022-11-21T14:29:55;15;11;
65012;PMS5003;51715;39.432;-77.518;2022-11-21T14:32:26;8;8;
65012;PMS5003;51715;39.432;-77.518;2022-11-21T14:35:17;9;9;
65012;PMS5003;51715;39.432;-77.518;2022-11-21T14:37:46;12;10;
65012;PMS5003;51715;39.432;-77.518;2022-11-21T14:40:19;10;10;
65012;PMS5003;51715;39.432;-77.518;2022-11-21T14:42:49;9;9;
65012;PMS5003;51715;39.432;-77.518;2022-11-21T14:45:19;15;13;
65012;PMS5003;51715;39.432;-77.518;2022-11-21T14:47:49;10;10;
65012;PMS5003;51715;39.432;-77.518;2022-11-21T14:50:22;15;14;
65012;PMS5003;51715;39.432;-77.518;2022-11-21T14:52:52;15;12;
65012;PMS5003;51715;39.432;-77.518;2022-11-21T14:55:23;15;15;
65012;PMS5003;51715;39.432;-77.518;2022-11-21T14:57:54;12;11;
65012;PMS5003;51715;39.432;-77.518;2022-11-21T15:00:24;10;9;
65012;PMS5003;51715;39.432;-77.518;2022-11-21T15:02:55;14;13;
65012;PMS5003;51715;39.432;-77.518;2022-11-21T15:05:28;11;11;
65012;PMS5003;51715;39.432;-77.518;2022-11-21T15:07:57;8;8;
65012;PMS5003;51715;39.432;-77.518;2022-11-21T15:10:28;13;12;
65012;PMS5003;51715;39.432;-77.518;2022-11-21T15:13:00;11;10;
65012;PMS5003;51715;39.432;-77.518;2022-11-21T15:15:33;9;9;
65012;PMS5003;51715;39.432;-77.518;2022-11-21T15:18:05;8;8;
65012;PMS5003;51715;39.432;-77.518;2022-11-21T15:20:40;10;9;
65012;PMS5003;51715;39.432;-77.518;2022-11-21T15:23:24;7;7;
65012;PMS5003;51715;39.432;-77.518;2022-11-21T15:25:54;7;6;
65012;PMS5003;51715;39.432;-77.518;2022-11-21T15:28:23;6;6;
65012;PMS5003;51715;39.432;-77.518;2022-11-21T15:31:25;7;7;
65012;PMS5003;51715;39.432;-77.518;2022-11-21T15:33:55;4;4;
65012;PMS5003;51715;39.432;-77.518;2022-11-21T15:36:26;8;7;
65012;PMS5003;51715;39.432;-77.518;2022-11-21T15:39:00;6;6;
65012;PMS5003;51715;39.432;-77.518;2022-11-21T15:41:31;7;7;
65012;PMS5003;51715;39.432;-77.518;2022-11-21T15:44:32;8;6;
65012;PMS5003;51715;39.432;-77.518;2022-11-21T15:47:01;9;9;
65012;PMS5003;51715;39.432;-77.518;2022-11-21T15:49:29;5;5;
65012;PMS5003;51715;39.432;-77.518;2022-11-21T15:51:57;6;3;
65012;PMS5003;51715;39.432;-77.518;2022-11-21T15:54:26;6;4;
65012;PMS5003;51715;39.432;-77.518;2022-11-21T15:56:54;7;7;
65012;PMS5003;51715;39.432;-77.518;2022-11-21T15:59:23;6;5;
65012;PMS5003;51715;39.432;-77.518;2022-11-21T16:01:51;8;7;
65012;PMS5003;51715;39.432;-77.518;2022-11-21T16:04:19;7;7;
65012;PMS5003;51715;39.432;-77.518;2022-11-21T16:06:49;10;7;
65012;PMS5003;51715;39.432;-77.518;2022-11-21T16:09:17;3;3;
65012;PMS5003;51715;39.432;-77.518;2022-11-21T16:11:46;5;5;
65012;PMS5003;51715;39.432;-77.518;2022-11-21T16:14:15;5;4;
65012;PMS5003;51715;39.432;-77.518;2022-11-21T16:16:43;5;5;
65012;PMS5003;51715;39.432;-77.518;2022-11-21T16:19:12;6;6;
65012;PMS5003;51715;39.432;-77.518;2022-11-21T16:21:41;6;6;
65012;PMS5003;51715;39.432;-77.518;2022-11-21T16:24:09;4;4;
65012;PMS5003;51715;39.432;-77.518;2022-11-21T16:26:38;4;4;
65012;PMS5003;51715;39.432;-77.518;2022-11-21T16:29:06;9;8;
65012;PMS5003;51715;39.432;-77.518;2022-11-21T16:31:36;8;8;
65012;PMS5003;51715;39.432;-77.518;2022-11-21T16:34:04;4;4;
65012;PMS5003;51715;39.432;-77.518;2022-11-21T16:36:32;7;7;
65012;PMS5003;51715;39.432;-77.518;2022-11-21T16:39:00;7;7;
65012;PMS5003;51715;39.432;-77.518;2022-11-21T16:41:28;6;6;
65012;PMS5003;51715;39.432;-77.518;2022-11-21T16:43:56;6;5;